sensor_id;sensor_type;location;lat;lon;timestamp;P1;durP1;ratioP1;P2;durP2;ratioP2
43807;SDS011;29438;50.664;10.098;2022-10-03T16:04:25;5.38;;;1.10;;
43807;SDS011;29438;50.664;10.098;2022-10-03T16:07:42;6.13;;;1.02;;
43807;SDS011;29438;50.664;10.098;2022-10-03T16:10:10;3.72;;;1.10;;
43807;SDS011;29438;50.664;10.098;2022-10-03T16:12:54;5.95;;;1.05;;
43807;SDS011;29438;50.664;10.098;2022-10-03T16:15:22;5.88;;;1.63;;
43807;SDS011;29438;50.664;10.098;2022-10-03T16:17:59;5.28;;;2.60;;
43807;SDS011;29438;50.664;10.098;2022-10-03T16:23:08;7.63;;;3.22;;
43807;SDS011;29438;50.664;10.098;2022-10-03T16:25:56;8.10;;;4.28;;
43807;SDS011;29438;50.664;10.098;2022-10-03T16:28:32;6.78;;;2.70;;
43807;SDS011;29438;50.664;10.098;2022-10-03T16:33:52;13.32;;;8.65;;
43807;SDS011;29438;50.664;10.098;2022-10-03T16:36:24;7.28;;;4.63;;
43807;SDS011;29438;50.664;10.098;2022-10-03T16:41:21;8.93;;;5.00;;
43807;SDS011;29438;50.664;10.098;2022-10-03T16:43:54;12.23;;;7.13;;
43807;SDS011;29438;50.664;10.098;2022-10-03T16:46:23;12.50;;;6.78;;
43807;SDS011;29438;50.664;10.098;2022-10-03T16:48:51;15.32;;;7.57;;
43807;SDS011;29438;50.664;10.098;2022-10-03T16:54:04;9.75;;;4.72;;
43807;SDS011;29438;50.664;10.098;2022-10-03T16:56:34;21.35;;;10.10;;
43807;SDS011;29438;50.664;10.098;2022-10-03T16:59:05;20.88;;;10.25;;
43807;SDS011;29438;50.664;10.098;2022-10-03T17:01:38;21.15;;;10.20;;
43807;SDS011;29438;50.664;10.098;2022-10-03T17:04:38;22.77;;;10.15;;
43807;SDS011;29438;50.664;10.098;2022-10-03T17:09:43;30.20;;;17.42;;
43807;SDS011;29438;50.664;10.098;2022-10-03T17:12:17;20.48;;;10.95;;
43807;SDS011;29438;50.664;10.098;2022-10-03T17:14:50;19.30;;;10.63;;
43807;SDS011;29438;50.664;10.098;2022-10-03T17:20:09;25.35;;;14.10;;
43807;SDS011;29438;50.664;10.098;2022-10-03T17:22:42;25.90;;;14.02;;
43807;SDS011;29438;50.664;10.098;2022-10-03T17:28:02;20.10;;;9.30;;
43807;SDS011;29438;50.664;10.098;2022-10-03T17:30:35;17.90;;;8.80;;
43807;SDS011;29438;50.664;10.098;2022-10-03T17:33:15;15.57;;;7.75;;
43807;SDS011;29438;50.664;10.098;2022-10-03T17:35:53;12.98;;;7.28;;
43807;SDS011;29438;50.664;10.098;2022-10-03T17:44:25;12.98;;;6.90;;
43807;SDS011;29438;50.664;10.098;2022-10-03T17:52:26;15.65;;;8.18;;
43807;SDS011;29438;50.664;10.098;2022-10-03T17:54:54;15.25;;;7.97;;
43807;SDS011;29438;50.664;10.098;2022-10-03T17:57:37;15.80;;;8.15;;
43807;SDS011;29438;50.664;10.098;2022-10-03T18:00:22;15.40;;;8.10;;
43807;SDS011;29438;50.664;10.098;2022-10-03T18:05:26;13.18;;;6.32;;
43807;SDS011;29438;50.664;10.098;2022-10-03T18:07:59;12.20;;;5.80;;
43807;SDS011;29438;50.664;10.098;2022-10-03T18:10:30;9.75;;;5.30;;
43807;SDS011;29438;50.664;10.098;2022-10-03T18:12:59;9.77;;;5.60;;
43807;SDS011;29438;50.664;10.098;2022-10-03T18:15:40;13.02;;;5.88;;
43807;SDS011;29438;50.664;10.098;2022-10-03T18:18:24;8.75;;;5.45;;
43807;SDS011;29438;50.664;10.098;2022-10-03T18:24:20;13.57;;;6.88;;
43807;SDS011;29438;50.664;10.098;2022-10-03T18:29:50;12.52;;;6.10;;
43807;SDS011;29438;50.664;10.098;2022-10-03T18:32:21;11.80;;;5.05;;
43807;SDS011;29438;50.664;10.098;2022-10-03T18:35:27;12.98;;;4.72;;
43807;SDS011;29438;50.664;10.098;2022-10-03T18:40:54;13.82;;;6.10;;
43807;SDS011;29438;50.664;10.098;2022-10-03T18:45:53;13.35;;;5.20;;
43807;SDS011;29438;50.664;10.098;2022-10-03T18:53:37;15.88;;;9.27;;
43807;SDS011;29438;50.664;10.098;2022-10-03T18:56:09;16.05;;;8.63;;
43807;SDS011;29438;50.664;10.098;2022-10-03T18:59:23;14.60;;;8.15;;
43807;SDS011;29438;50.664;10.098;2022-10-03T19:01:47;14.65;;;8.27;;
43807;SDS011;29438;50.664;10.098;2022-10-03T19:04:22;14.00;;;7.20;;
43807;SDS011;29438;50.664;10.098;2022-10-03T19:06:58;13.45;;;7.75;;
43807;SDS011;29438;50.664;10.098;2022-10-03T19:09:34;14.13;;;8.00;;
43807;SDS011;29438;50.664;10.098;2022-10-03T19:12:14;14.15;;;6.47;;
43807;SDS011;29438;50.664;10.098;2022-10-03T19:14:54;12.27;;;5.72;;
43807;SDS011;29438;50.664;10.098;2022-10-03T19:20:45;13.32;;;7.18;;
43807;SDS011;29438;50.664;10.098;2022-10-03T19:23:19;25.15;;;12.52;;
43807;SDS011;29438;50.664;10.098;2022-10-03T19:25:52;25.57;;;13.00;;
43807;SDS011;29438;50.664;10.098;2022-10-03T19:31:07;23.75;;;11.85;;
43807;SDS011;29438;50.664;10.098;2022-10-03T19:33:42;25.25;;;12.10;;
43807;SDS011;29438;50.664;10.098;2022-10-03T19:36:14;23.60;;;11.50;;
43807;SDS011;29438;50.664;10.098;2022-10-03T19:38:43;19.70;;;10.30;;
43807;SDS011;29438;50.664;10.098;2022-10-03T19:43:55;19.38;;;10.40;;
43807;SDS011;29438;50.664;10.098;2022-10-03T19:51:49;13.73;;;6.68;;
43807;SDS011;29438;50.664;10.098;2022-10-03T19:54:32;20.35;;;8.60;;
43807;SDS011;29438;50.664;10.098;2022-10-03T19:57:11;18.10;;;9.63;;
43807;SDS011;29438;50.664;10.098;2022-10-03T19:59:44;18.92;;;7.47;;
43807;SDS011;29438;50.664;10.098;2022-10-03T20:02:14;10.77;;;6.32;;
43807;SDS011;29438;50.664;10.098;2022-10-03T20:04:46;11.95;;;5.72;;
43807;SDS011;29438;50.664;10.098;2022-10-03T20:07:15;18.60;;;9.07;;
43807;SDS011;29438;50.664;10.098;2022-10-03T20:09:53;13.60;;;6.68;;
43807;SDS011;29438;50.664;10.098;2022-10-03T20:12:22;12.63;;;6.20;;
43807;SDS011;29438;50.664;10.098;2022-10-03T20:14:51;14.45;;;6.10;;
43807;SDS011;29438;50.664;10.098;2022-10-03T20:17:20;14.50;;;6.05;;
43807;SDS011;29438;50.664;10.098;2022-10-03T20:19:54;16.40;;;7.13;;
43807;SDS011;29438;50.664;10.098;2022-10-03T20:22:32;24.05;;;11.52;;
43807;SDS011;29438;50.664;10.098;2022-10-03T20:25:00;19.02;;;8.73;;
43807;SDS011;29438;50.664;10.098;2022-10-03T20:32:50;17.80;;;8.75;;
43807;SDS011;29438;50.664;10.098;2022-10-03T20:35:21;18.85;;;7.93;;
43807;SDS011;29438;50.664;10.098;2022-10-03T20:43:16;13.02;;;5.93;;
43807;SDS011;29438;50.664;10.098;2022-10-03T20:48:40;15.32;;;5.70;;
43807;SDS011;29438;50.664;10.098;2022-10-03T20:51:20;13.48;;;5.88;;
43807;SDS011;29438;50.664;10.098;2022-10-03T20:53:46;17.45;;;6.75;;
43807;SDS011;29438;50.664;10.098;2022-10-03T20:56:17;17.45;;;7.10;;
43807;SDS011;29438;50.664;10.098;2022-10-03T21:01:16;11.88;;;6.10;;
43807;SDS011;29438;50.664;10.098;2022-10-03T21:09:42;15.25;;;5.63;;
43807;SDS011;29438;50.664;10.098;2022-10-03T21:12:16;13.10;;;5.35;;
43807;SDS011;29438;50.664;10.098;2022-10-03T21:14:46;13.77;;;5.18;;
43807;SDS011;29438;50.664;10.098;2022-10-03T21:17:15;15.50;;;5.43;;
43807;SDS011;29438;50.664;10.098;2022-10-03T21:19:45;11.88;;;5.25;;
43807;SDS011;29438;50.664;10.098;2022-10-03T21:22:16;14.05;;;5.50;;
43807;SDS011;29438;50.664;10.098;2022-10-03T21:27:20;13.33;;;5.20;;
43807;SDS011;29438;50.664;10.098;2022-10-03T21:29:58;15.00;;;5.82;;
43807;SDS011;29438;50.664;10.098;2022-10-03T21:32:44;14.20;;;6.00;;
43807;SDS011;29438;50.664;10.098;2022-10-03T21:51:27;14.80;;;5.40;;
43807;SDS011;29438;50.664;10.098;2022-10-03T21:54:58;17.75;;;6.03;;
43807;SDS011;29438;50.664;10.098;2022-10-03T21:59:57;16.60;;;5.32;;
43807;SDS011;29438;50.664;10.098;2022-10-03T22:05:54;12.25;;;5.00;;
43807;SDS011;29438;50.664;10.098;2022-10-03T22:08:31;15.30;;;5.50;;
43807;SDS011;29438;50.664;10.098;2022-10-03T22:11:07;14.25;;;5.20;;
43807;SDS011;29438;50.664;10.098;2022-10-03T22:19:39;19.35;;;6.53;;
43807;SDS011;29438;50.664;10.098;2022-10-03T22:22:43;15.98;;;5.72;;
43807;SDS011;29438;50.664;10.098;2022-10-03T22:30:59;17.35;;;7.47;;
43807;SDS011;29438;50.664;10.098;2022-10-03T22:33:43;18.77;;;7.13;;
43807;SDS011;29438;50.664;10.098;2022-10-03T22:36:36;13.45;;;6.82;;
43807;SDS011;29438;50.664;10.098;2022-10-03T22:39:10;17.15;;;6.82;;
43807;SDS011;29438;50.664;10.098;2022-10-03T22:41:38;17.33;;;5.95;;
43807;SDS011;29438;50.664;10.098;2022-10-03T22:44:07;17.65;;;6.47;;
43807;SDS011;29438;50.664;10.098;2022-10-03T22:46:35;16.70;;;6.53;;
43807;SDS011;29438;50.664;10.098;2022-10-03T22:51:45;18.05;;;6.80;;
43807;SDS011;29438;50.664;10.098;2022-10-03T22:54:14;17.45;;;6.65;;
43807;SDS011;29438;50.664;10.098;2022-10-03T22:59:24;13.35;;;5.82;;
43807;SDS011;29438;50.664;10.098;2022-10-03T23:01:55;14.82;;;5.45;;
43807;SDS011;29438;50.664;10.098;2022-10-03T23:08:25;15.95;;;5.90;;
43807;SDS011;29438;50.664;10.098;2022-10-03T23:12:58;15.10;;;5.88;;
43807;SDS011;29438;50.664;10.098;2022-10-03T23:15:28;14.80;;;5.65;;
43807;SDS011;29438;50.664;10.098;2022-10-03T23:20:50;14.30;;;5.43;;
43807;SDS011;29438;50.664;10.098;2022-10-03T23:26:43;14.30;;;5.57;;
43807;SDS011;29438;50.664;10.098;2022-10-03T23:29:18;18.05;;;6.15;;
43807;SDS011;29438;50.664;10.098;2022-10-03T23:37:00;14.52;;;5.65;;
43807;SDS011;29438;50.664;10.098;2022-10-03T23:39:35;14.80;;;5.53;;
43807;SDS011;29438;50.664;10.098;2022-10-03T23:42:08;13.75;;;5.38;;
43807;SDS011;29438;50.664;10.098;2022-10-03T23:44:53;14.80;;;5.38;;
43807;SDS011;29438;50.664;10.098;2022-10-03T23:47:25;14.52;;;5.60;;
43807;SDS011;29438;50.664;10.098;2022-10-03T23:49:57;16.98;;;5.45;;
43807;SDS011;29438;50.664;10.098;2022-10-03T23:52:27;16.40;;;5.80;;
43807;SDS011;29438;50.664;10.098;2022-10-03T23:55:00;19.13;;;5.18;;
43807;SDS011;29438;50.664;10.098;2022-10-03T23:57:39;16.75;;;6.03;;
